Time;durP1;ratioP1;P1;durP2;ratioP2;P2;SDS_P1;SDS_P2;PMS_P1;PMS_P2;Temp;Humidity;BMP_temperature;BMP_pressure;BME280_temperature;BME280_humidity;BME280_pressure;Samples;Min_cycle;Max_cycle;Signal;HPM_P1;HPM_P2
2022/04/13 00:00:03;;;;;;;;;;;;;;;;;;1282297;23;925;-47
2022/04/13 00:00:40;;;;;;;;;;;;;;;;;;1282339;23;761;-47
2022/04/13 00:01:13;;;;;;;;;;;;;;;;;;1282391;23;1011;-47
2022/04/13 00:01:44;;;;;;;;;;;;;;;;;;1282508;23;937;-47
2022/04/13 00:02:14;;;;;;;;;;;;;;;;;;1282223;23;813;-47
2022/04/13 00:02:45;;;;;;;;;;;;;;;;;;1282510;23;921;-47
2022/04/13 00:03:15;;;;;;;;;;;;;;;;;;1281788;23;1628;-48
2022/04/13 00:03:46;;;;;;;;;;;;;;;;;;1282324;23;802;-47
2022/04/13 00:04:18;;;;;;;;;;;;;;;;;;1282311;23;913;-47
2022/04/13 00:04:48;;;;;;;;;;;;;;;;;;1282520;23;919;-47
2022/04/13 00:05:18;;;;;;;;;;;;;;;;;;1282675;23;829;-47
2022/04/13 00:05:49;;;;;;;;;;;;;;;;;;1282138;23;873;-47
2022/04/13 00:06:19;;;;;;;;;;;;;;;;;;1282458;23;917;-47
2022/04/13 00:06:49;;;;;;;;;;;;;;;;;;1282330;23;885;-47
2022/04/13 00:07:20;;;;;;;;;;;;;;;;;;1282451;23;941;-47
2022/04/13 00:07:50;;;;;;;;;;;;;;;;;;1282338;23;852;-47
2022/04/13 00:08:21;;;;;;;;;;;;;;;;;;1282341;23;817;-48
2022/04/13 00:08:51;;;;;;;;;;;;;;;;;;1282324;23;932;-47
2022/04/13 00:09:21;;;;;;;;;;;;;;;;;;1282605;23;790;-47
2022/04/13 00:09:52;;;;;;;;;;;;;;;;;;1282055;23;912;-47
2022/04/13 00:10:22;;;;;;;;;;;;;;;;;;1276064;23;893;-47
2022/04/13 00:10:52;;;;;;;;;;;;;;;;;;1275665;23;875;-48
2022/04/13 00:11:23;;;;;;;;;;;;;;;;;;1275382;23;912;-47
2022/04/13 00:11:54;;;;;;;;;;;;;;;;;;1275715;23;845;-48
2022/04/13 00:12:24;;;;;;;;;;;;;;;;;;1281922;23;869;-47
2022/04/13 00:12:55;;;;;;;;;;;;;;;;;;1281884;23;853;-47
2022/04/13 00:13:25;;;;;;;;;;;;;;;;;;1282026;23;805;-48
2022/04/13 00:13:55;;;;;;;;;;;;;;;;;;1281815;23;743;-48
2022/04/13 00:14:26;;;;;;;;;;;;;;;;;;1282639;23;834;-48
2022/04/13 00:14:56;;;;;;;;;;;;;;;;;;1282156;23;921;-47
2022/04/13 00:15:26;;;;;;;;;;;;;;;;;;1282556;23;909;-47
2022/04/13 00:15:56;;;;;;;;;;;;;;;;;;1282313;23;858;-47
2022/04/13 00:16:27;;;;;;;;;;;;;;;;;;1282384;23;1901;-47
2022/04/13 00:16:58;;;;;;;;;;;;;;;;;;1282471;23;1055;-47
2022/04/13 00:17:29;;;;;;;;;;;;;;;;;;1282407;23;814;-48
2022/04/13 00:18:03;;;;;;;;;;;;;;;;;;1282120;23;813;-48
2022/04/13 00:18:34;;;;;;;;;;;;;;;;;;1281584;23;885;-47
2022/04/13 00:19:04;;;;;;;;;;;;;;;;;;1282306;23;1321;-48
2022/04/13 00:19:34;;;;;;;;;;;;;;;;;;1282551;23;925;-48
2022/04/13 00:20:05;;;;;;;;;;;;;;;;;;1282399;23;869;-47
2022/04/13 00:20:36;;;;;;;;;;;;;;;;;;1282252;23;670;-48
2022/04/13 00:21:06;;;;;;;;;;;;;;;;;;1282284;23;793;-48
2022/04/13 00:21:36;;;;;;;;;;;;;;;;;;1282351;23;935;-48
2022/04/13 00:22:07;;;;;;;;;;;;;;;;;;1282347;23;797;-48
2022/04/13 00:22:37;;;;;;;;;;;;;;;;;;1282450;23;802;-48
2022/04/13 00:23:07;;;;;;;;;;;;;;;;;;1281900;23;921;-48
2022/04/13 00:23:38;;;;;;;;;;;;;;;;;;1282041;23;1105;-48
2022/04/13 00:24:08;;;;;;;;;;;;;;;;;;1281750;23;814;-47
2022/04/13 00:24:39;;;;;;;;;;;;;;;;;;1281853;23;863;-47
2022/04/13 00:25:09;;;;;;;;;;;;;;;;;;1282446;23;802;-48
2022/04/13 00:25:41;;;;;;;;;;;;;;;;;;1282308;23;1034;-48
2022/04/13 00:26:12;;;;;;;;;;;;;;;;;;1281676;23;924;-48
2022/04/13 00:26:42;;;;;;;;;;;;;;;;;;1282574;23;893;-47
2022/04/13 00:27:12;;;;;;;;;;;;;;;;;;1282164;23;869;-48
2022/04/13 00:27:43;;;;;;;;;;;;;;;;;;1282645;23;865;-48
2022/04/13 00:28:14;;;;;;;;;;;;;;;;;;1282090;23;829;-48
2022/04/13 00:28:44;;;;;;;;;;;;;;;;;;1282711;23;857;-47
2022/04/13 00:29:14;;;;;;;;;;;;;;;;;;1282584;23;994;-48
2022/04/13 00:29:45;;;;;;;;;;;;;;;;;;1282643;23;766;-48
2022/04/13 00:30:15;;;;;;;;;;;;;;;;;;1282246;23;768;-48
2022/04/13 00:30:45;;;;;;;;;;;;;;;;;;1282404;23;1724;-48
2022/04/13 00:31:16;;;;;;;;;;;;;;;;;;1282104;23;813;-48
2022/04/13 00:31:46;;;;;;;;;;;;;;;;;;1282548;23;1146;-48
2022/04/13 00:32:16;;;;;;;;;;;;;;;;;;1281902;23;910;-48
2022/04/13 00:32:47;;;;;;;;;;;;;;;;;;1282756;23;814;-47
2022/04/13 00:33:17;;;;;;;;;;;;;;;;;;1281823;23;774;-47
2022/04/13 00:33:47;;;;;;;;;;;;;;;;;;1282291;23;876;-48
2022/04/13 00:34:18;;;;;;;;;;;;;;;;;;1282388;23;1593;-47
2022/04/13 00:34:48;;;;;;;;;;;;;;;;;;1282177;23;735;-47
2022/04/13 00:35:19;;;;;;;;;;;;;;;;;;1282444;23;916;-47
2022/04/13 00:35:49;;;;;;;;;;;;;;;;;;1282306;23;1119;-47
2022/04/13 00:36:19;;;;;;;;;;;;;;;;;;1282338;23;893;-47
2022/04/13 00:36:50;;;;;;;;;;;;;;;;;;1282400;23;1940;-47
2022/04/13 00:37:23;;;;;;;;;;;;;;;;;;1282081;23;973;-47
2022/04/13 00:37:53;;;;;;;;;;;;;;;;;;1282286;23;929;-47
2022/04/13 00:38:23;;;;;;;;;;;;;;;;;;1282592;23;1168;-47
2022/04/13 00:38:54;;;;;;;;;;;;;;;;;;1282259;23;924;-48
2022/04/13 00:39:24;;;;;;;;;;;;;;;;;;1282611;23;821;-47
2022/04/13 00:39:55;;;;;;;;;;;;;;;;;;1282120;23;881;-48
2022/04/13 00:40:25;;;;;;;;;;;;;;;;;;1282558;23;1201;-47
2022/04/13 00:40:55;;;;;;;;;;;;;;;;;;1281826;23;790;-48
2022/04/13 00:41:26;;;;;;;;;;;;;;;;;;1282334;23;956;-48
2022/04/13 00:42:01;;;;;;;;;;;;;;;;;;1282313;23;1122;-48
2022/04/13 00:42:32;;;;;;;;;;;;;;;;;;1282633;23;789;-47
2022/04/13 00:43:02;;;;;;;;;;;;;;;;;;1282071;23;1648;-48
2022/04/13 00:43:32;;;;;;;;;;;;;;;;;;1282586;23;806;-48
2022/04/13 00:44:07;;;;;;;;;;;;;;;;;;1282231;23;1134;-48
2022/04/13 00:44:37;;;;;;;;;;;;;;;;;;1282378;23;989;-47
2022/04/13 00:45:08;;;;;;;;;;;;;;;;;;1282275;23;881;-48
2022/04/13 00:45:38;;;;;;;;;;;;;;;;;;1282423;23;1144;-47
2022/04/13 00:46:08;;;;;;;;;;;;;;;;;;1282215;23;909;-48
2022/04/13 00:46:39;;;;;;;;;;;;;;;;;;1282370;23;952;-48
2022/04/13 00:47:09;;;;;;;;;;;;;;;;;;1282479;23;797;-48
2022/04/13 00:47:40;;;;;;;;;;;;;;;;;;1282545;23;869;-48
2022/04/13 00:48:16;;;;;;;;;;;;;;;;;;1281824;23;1579;-48
2022/04/13 00:48:46;;;;;;;;;;;;;;;;;;1282139;23;969;-47
2022/04/13 00:49:17;;;;;;;;;;;;;;;;;;1281697;23;889;-47
2022/04/13 00:49:47;;;;;;;;;;;;;;;;;;1282108;23;837;-47
2022/04/13 00:50:20;;;;;;;;;;;;;;;;;;1281739;23;905;-48
2022/04/13 00:50:53;;;;;;;;;;;;;;;;;;1282125;23;881;-48
2022/04/13 00:51:24;;;;;;;;;;;;;;;;;;1282530;23;877;-48
2022/04/13 00:52:04;;;;;;;;;;;;;;;;;;1282076;23;888;-48
2022/04/13 00:52:39;;;;;;;;;;;;;;;;;;1282426;23;878;-48
2022/04/13 00:53:10;;;;;;;;;;;;;;;;;;1282468;23;833;-48
2022/04/13 00:53:41;;;;;;;;;;;;;;;;;;1282355;23;762;-48
2022/04/13 00:54:13;;;;;;;;;;;;;;;;;;1282240;23;909;-47
2022/04/13 00:54:47;;;;;;;;;;;;;;;;;;1282331;23;818;-48
2022/04/13 00:55:18;;;;;;;;;;;;;;;;;;1282332;23;809;-47
2022/04/13 00:55:49;;;;;;;;;;;;;;;;;;1281793;23;826;-48
2022/04/13 00:56:23;;;;;;;;;;;;;;;;;;1282474;23;961;-50
2022/04/13 00:56:55;;;;;;;;;;;;;;;;;;1282392;23;960;-48
2022/04/13 00:57:27;;;;;;;;;;;;;;;;;;1282285;23;956;-48
2022/04/13 00:57:59;;;;;;;;;;;;;;;;;;1282453;23;940;-48
2022/04/13 00:58:31;;;;;;;;;;;;;;;;;;1282417;23;1068;-47
2022/04/13 00:59:07;;;;;;;;;;;;;;;;;;1282319;23;810;-47
2022/04/13 00:59:38;;;;;;;;;;;;;;;;;;1282742;23;940;-47
2022/04/13 01:00:10;;;;;;;;;;;;;;;;;;1282374;23;806;-47
2022/04/13 01:00:48;;;;;;;;;;;;;;;;;;1282869;23;779;-48
2022/04/13 01:01:18;;;;;;;;;;;;;;;;;;1282775;23;893;-47
2022/04/13 01:01:53;;;;;;;;;;;;;;;;;;1282561;23;893;-47
2022/04/13 01:02:24;;;;;;;;;;;;;;;;;;1285426;23;877;-47
2022/04/13 01:02:57;;;;;;;;;;;;;;;;;;1285083;23;858;-48
2022/04/13 01:03:28;;;;;;;;;;;;;;;;;;1285764;23;963;-47
2022/04/13 01:03:59;;;;;;;;;;;;;;;;;;1285438;23;964;-48
2022/04/13 01:04:30;;;;;;;;;;;;;;;;;;1283038;23;956;-48
2022/04/13 01:05:06;;;;;;;;;;;;;;;;;;1282396;23;846;-47
2022/04/13 01:05:39;;;;;;;;;;;;;;;;;;1282573;23;955;-48
2022/04/13 01:06:09;;;;;;;;;;;;;;;;;;1282220;23;747;-47
2022/04/13 01:06:40;;;;;;;;;;;;;;;;;;1282310;23;787;-47
2022/04/13 01:07:10;;;;;;;;;;;;;;;;;;1282023;23;928;-47
2022/04/13 01:07:42;;;;;;;;;;;;;;;;;;1281444;23;1142;-47
2022/04/13 01:08:13;;;;;;;;;;;;;;;;;;1282058;23;738;-47
2022/04/13 01:08:50;;;;;;;;;;;;;;;;;;1282457;23;821;-47
2022/04/13 01:09:23;;;;;;;;;;;;;;;;;;1282343;23;992;-48
2022/04/13 01:09:53;;;;;;;;;;;;;;;;;;1282016;23;952;-48
2022/04/13 01:10:25;;;;;;;;;;;;;;;;;;1281921;23;924;-47
2022/04/13 01:10:56;;;;;;;;;;;;;;;;;;1282338;23;809;-47
2022/04/13 01:11:27;;;;;;;;;;;;;;;;;;1282244;23;948;-47
2022/04/13 01:11:57;;;;;;;;;;;;;;;;;;1281837;23;838;-47
2022/04/13 01:12:27;;;;;;;;;;;;;;;;;;1282354;23;817;-47
2022/04/13 01:12:58;;;;;;;;;;;;;;;;;;1282349;23;813;-47
2022/04/13 01:13:28;;;;;;;;;;;;;;;;;;1282207;23;1076;-47
2022/04/13 01:13:59;;;;;;;;;;;;;;;;;;1282447;23;897;-48
2022/04/13 01:14:29;;;;;;;;;;;;;;;;;;1282465;23;821;-47
2022/04/13 01:15:00;;;;;;;;;;;;;;;;;;1282235;23;936;-46
2022/04/13 01:15:30;;;;;;;;;;;;;;;;;;1282388;23;813;-47
2022/04/13 01:16:01;;;;;;;;;;;;;;;;;;1282088;23;1079;-47
2022/04/13 01:16:32;;;;;;;;;;;;;;;;;;1275493;23;1897;-47
2022/04/13 01:17:02;;;;;;;;;;;;;;;;;;1275345;23;857;-47
2022/04/13 01:17:32;;;;;;;;;;;;;;;;;;1275787;23;790;-47
2022/04/13 01:18:03;;;;;;;;;;;;;;;;;;1275220;23;870;-47
2022/04/13 01:18:34;;;;;;;;;;;;;;;;;;1282326;23;908;-47
2022/04/13 01:19:06;;;;;;;;;;;;;;;;;;1281809;23;1275;-47
2022/04/13 01:19:39;;;;;;;;;;;;;;;;;;1282091;23;931;-47
2022/04/13 01:20:11;;;;;;;;;;;;;;;;;;1280910;23;1028;-47
2022/04/13 01:20:48;;;;;;;;;;;;;;;;;;1282189;23;757;-47
2022/04/13 01:21:41;;;;;;;;;;;;;;;;;;1282375;23;924;-47
2022/04/13 01:22:18;;;;;;;;;;;;;;;;;;1282001;23;876;-47
2022/04/13 01:22:48;;;;;;;;;;;;;;;;;;1281966;23;955;-47
2022/04/13 01:23:20;;;;;;;;;;;;;;;;;;1282103;23;790;-47
2022/04/13 01:23:50;;;;;;;;;;;;;;;;;;1281349;23;844;-47
2022/04/13 01:24:21;;;;;;;;;;;;;;;;;;1282074;23;925;-47
2022/04/13 01:24:51;;;;;;;;;;;;;;;;;;1281757;23;782;-49
2022/04/13 01:25:22;;;;;;;;;;;;;;;;;;1282000;23;762;-47
2022/04/13 01:25:53;;;;;;;;;;;;;;;;;;1281717;23;936;-47
2022/04/13 01:26:23;;;;;;;;;;;;;;;;;;1282571;23;908;-47
2022/04/13 01:26:53;;;;;;;;;;;;;;;;;;1281875;23;882;-47
2022/04/13 01:27:26;;;;;;;;;;;;;;;;;;1282564;23;957;-46
2022/04/13 01:27:56;;;;;;;;;;;;;;;;;;1281885;23;908;-47
2022/04/13 01:28:26;;;;;;;;;;;;;;;;;;1282524;23;861;-46
2022/04/13 01:28:56;;;;;;;;;;;;;;;;;;1282129;23;1387;-47
2022/04/13 01:29:27;;;;;;;;;;;;;;;;;;1282150;23;868;-47
2022/04/13 01:29:57;;;;;;;;;;;;;;;;;;1281913;23;790;-46
2022/04/13 01:30:27;;;;;;;;;;;;;;;;;;1281877;23;809;-46
2022/04/13 01:30:58;;;;;;;;;;;;;;;;;;1281607;23;801;-47
2022/04/13 01:31:28;;;;;;;;;;;;;;;;;;1282168;23;833;-47
2022/04/13 01:31:58;;;;;;;;;;;;;;;;;;1282095;23;826;-47
2022/04/13 01:32:29;;;;;;;;;;;;;;;;;;1281952;23;912;-47
2022/04/13 01:33:03;;;;;;;;;;;;;;;;;;1281976;23;834;-47
2022/04/13 01:33:33;;;;;;;;;;;;;;;;;;1282364;23;773;-47
2022/04/13 01:34:04;;;;;;;;;;;;;;;;;;1282201;23;742;-46
2022/04/13 01:34:34;;;;;;;;;;;;;;;;;;1282367;23;892;-46
2022/04/13 01:35:06;;;;;;;;;;;;;;;;;;1282142;23;1008;-48
2022/04/13 01:35:36;;;;;;;;;;;;;;;;;;1282656;23;909;-47
2022/04/13 01:36:06;;;;;;;;;;;;;;;;;;1281885;23;789;-47
2022/04/13 01:36:37;;;;;;;;;;;;;;;;;;1282318;23;1908;-48
2022/04/13 01:37:07;;;;;;;;;;;;;;;;;;1281898;23;857;-47
2022/04/13 01:37:38;;;;;;;;;;;;;;;;;;1282513;23;1031;-47
2022/04/13 01:38:08;;;;;;;;;;;;;;;;;;1281600;23;810;-47
2022/04/13 01:38:39;;;;;;;;;;;;;;;;;;1281665;23;1133;-47
2022/04/13 01:39:09;;;;;;;;;;;;;;;;;;1281759;23;849;-48
2022/04/13 01:39:39;;;;;;;;;;;;;;;;;;1282048;23;928;-48
2022/04/13 01:40:10;;;;;;;;;;;;;;;;;;1281354;23;786;-47
2022/04/13 01:40:42;;;;;;;;;;;;;;;;;;1281867;23;955;-48
2022/04/13 01:41:13;;;;;;;;;;;;;;;;;;1281778;23;917;-48
2022/04/13 01:41:43;;;;;;;;;;;;;;;;;;1282558;23;918;-47
2022/04/13 01:42:14;;;;;;;;;;;;;;;;;;1281926;23;979;-47
2022/04/13 01:42:47;;;;;;;;;;;;;;;;;;1282359;23;924;-47
2022/04/13 01:43:17;;;;;;;;;;;;;;;;;;1282400;23;817;-47
2022/04/13 01:43:47;;;;;;;;;;;;;;;;;;1282119;23;873;-48
2022/04/13 01:44:18;;;;;;;;;;;;;;;;;;1282212;23;901;-48
2022/04/13 01:44:48;;;;;;;;;;;;;;;;;;1282078;23;880;-48
2022/04/13 01:45:21;;;;;;;;;;;;;;;;;;1282409;23;810;-47
2022/04/13 01:45:53;;;;;;;;;;;;;;;;;;1281968;23;944;-48
2022/04/13 01:46:23;;;;;;;;;;;;;;;;;;1282441;23;868;-48
2022/04/13 01:46:54;;;;;;;;;;;;;;;;;;1281904;23;888;-48
2022/04/13 01:47:24;;;;;;;;;;;;;;;;;;1282008;23;929;-47
2022/04/13 01:47:54;;;;;;;;;;;;;;;;;;1281933;23;869;-48
2022/04/13 01:48:25;;;;;;;;;;;;;;;;;;1282367;23;1657;-48
2022/04/13 01:48:55;;;;;;;;;;;;;;;;;;1281676;23;928;-47
2022/04/13 01:49:25;;;;;;;;;;;;;;;;;;1281937;23;796;-47
2022/04/13 01:49:56;;;;;;;;;;;;;;;;;;1281833;23;814;-47
2022/04/13 01:50:26;;;;;;;;;;;;;;;;;;1282036;23;932;-48
2022/04/13 01:50:59;;;;;;;;;;;;;;;;;;1281961;23;1343;-47
2022/04/13 01:51:30;;;;;;;;;;;;;;;;;;1282429;23;920;-47
2022/04/13 01:52:00;;;;;;;;;;;;;;;;;;1281905;23;1697;-47
2022/04/13 01:52:30;;;;;;;;;;;;;;;;;;1282310;23;842;-47
2022/04/13 01:53:01;;;;;;;;;;;;;;;;;;1282203;23;793;-47
2022/04/13 01:53:31;;;;;;;;;;;;;;;;;;1282448;23;1124;-47
2022/04/13 01:54:01;;;;;;;;;;;;;;;;;;1282099;23;924;-48
2022/04/13 01:54:32;;;;;;;;;;;;;;;;;;1282245;23;1056;-48
2022/04/13 01:55:02;;;;;;;;;;;;;;;;;;1281673;23;810;-48
2022/04/13 01:55:32;;;;;;;;;;;;;;;;;;1282309;23;797;-47
2022/04/13 01:56:03;;;;;;;;;;;;;;;;;;1282032;23;932;-48
2022/04/13 01:56:33;;;;;;;;;;;;;;;;;;1282371;23;1901;-48
2022/04/13 01:57:04;;;;;;;;;;;;;;;;;;1282179;23;892;-48
2022/04/13 01:57:34;;;;;;;;;;;;;;;;;;1282441;23;951;-48
2022/04/13 01:58:05;;;;;;;;;;;;;;;;;;1282029;23;913;-48
2022/04/13 01:58:35;;;;;;;;;;;;;;;;;;1282284;23;787;-48
2022/04/13 01:59:05;;;;;;;;;;;;;;;;;;1275378;23;912;-48
2022/04/13 01:59:36;;;;;;;;;;;;;;;;;;1275851;23;929;-48
2022/04/13 02:00:08;;;;;;;;;;;;;;;;;;1275220;23;921;-48
2022/04/13 02:00:38;;;;;;;;;;;;;;;;;;1276233;23;758;-48
2022/04/13 02:01:10;;;;;;;;;;;;;;;;;;1281984;23;940;-48
2022/04/13 02:01:41;;;;;;;;;;;;;;;;;;1282552;23;956;-48
2022/04/13 02:02:12;;;;;;;;;;;;;;;;;;1282028;23;908;-48
2022/04/13 02:02:42;;;;;;;;;;;;;;;;;;1282806;23;960;-48
2022/04/13 02:03:13;;;;;;;;;;;;;;;;;;1282532;23;848;-48
2022/04/13 02:03:43;;;;;;;;;;;;;;;;;;1282883;23;960;-48
2022/04/13 02:04:17;;;;;;;;;;;;;;;;;;1282322;23;932;-48
2022/04/13 02:04:50;;;;;;;;;;;;;;;;;;1282557;23;931;-48
2022/04/13 02:05:21;;;;;;;;;;;;;;;;;;1282702;23;976;-48
2022/04/13 02:05:52;;;;;;;;;;;;;;;;;;1282500;23;836;-48
2022/04/13 02:06:22;;;;;;;;;;;;;;;;;;1282836;23;889;-48
2022/04/13 02:06:53;;;;;;;;;;;;;;;;;;1282395;23;672;-48
2022/04/13 02:07:24;;;;;;;;;;;;;;;;;;1283131;23;889;-48
2022/04/13 02:07:54;;;;;;;;;;;;;;;;;;1282311;23;865;-48
2022/04/13 02:08:26;;;;;;;;;;;;;;;;;;1282809;23;814;-48
2022/04/13 02:08:56;;;;;;;;;;;;;;;;;;1282622;23;779;-48
2022/04/13 02:09:27;;;;;;;;;;;;;;;;;;1282343;23;805;-48
2022/04/13 02:09:57;;;;;;;;;;;;;;;;;;1275898;23;873;-48
2022/04/13 02:10:27;;;;;;;;;;;;;;;;;;1276098;23;833;-48
2022/04/13 02:10:58;;;;;;;;;;;;;;;;;;1275973;23;901;-48
2022/04/13 02:11:28;;;;;;;;;;;;;;;;;;1276163;23;857;-48
2022/04/13 02:11:58;;;;;;;;;;;;;;;;;;1282472;23;797;-48
2022/04/13 02:12:29;;;;;;;;;;;;;;;;;;1282705;23;799;-48
2022/04/13 02:12:59;;;;;;;;;;;;;;;;;;1282596;23;881;-49
2022/04/13 02:13:30;;;;;;;;;;;;;;;;;;1282941;23;759;-48
2022/04/13 02:14:00;;;;;;;;;;;;;;;;;;1282633;23;786;-48
2022/04/13 02:14:30;;;;;;;;;;;;;;;;;;1282522;23;908;-48
2022/04/13 02:15:01;;;;;;;;;;;;;;;;;;1282893;23;774;-48
2022/04/13 02:15:31;;;;;;;;;;;;;;;;;;1282597;23;996;-48
2022/04/13 02:16:01;;;;;;;;;;;;;;;;;;1282485;23;932;-48
2022/04/13 02:16:32;;;;;;;;;;;;;;;;;;1282603;23;1917;-49
2022/04/13 02:17:02;;;;;;;;;;;;;;;;;;1282274;23;916;-48
2022/04/13 02:17:33;;;;;;;;;;;;;;;;;;1282792;23;964;-48
2022/04/13 02:18:03;;;;;;;;;;;;;;;;;;1282064;23;1001;-47
2022/04/13 02:18:33;;;;;;;;;;;;;;;;;;1282577;23;1361;-48
2022/04/13 02:19:04;;;;;;;;;;;;;;;;;;1282726;23;842;-48
2022/04/13 02:19:34;;;;;;;;;;;;;;;;;;1276197;23;857;-50
2022/04/13 02:20:05;;;;;;;;;;;;;;;;;;1275907;23;774;-48
2022/04/13 02:20:36;;;;;;;;;;;;;;;;;;1276225;23;846;-48
2022/04/13 02:21:06;;;;;;;;;;;;;;;;;;1275995;23;854;-48
2022/04/13 02:21:37;;;;;;;;;;;;;;;;;;1282976;23;834;-48
2022/04/13 02:22:08;;;;;;;;;;;;;;;;;;1282272;23;1423;-48
2022/04/13 02:22:43;;;;;;;;;;;;;;;;;;1282991;23;813;-48
2022/04/13 02:23:13;;;;;;;;;;;;;;;;;;1282489;23;866;-48
2022/04/13 02:23:44;;;;;;;;;;;;;;;;;;1282696;23;985;-48
2022/04/13 02:24:14;;;;;;;;;;;;;;;;;;1281774;23;933;-48
2022/04/13 02:24:44;;;;;;;;;;;;;;;;;;1282766;23;972;-48
2022/04/13 02:25:15;;;;;;;;;;;;;;;;;;1282412;23;825;-48
2022/04/13 02:25:45;;;;;;;;;;;;;;;;;;1282756;23;905;-47
2022/04/13 02:26:17;;;;;;;;;;;;;;;;;;1282334;23;866;-47
2022/04/13 02:26:47;;;;;;;;;;;;;;;;;;1282696;23;868;-49
2022/04/13 02:27:17;;;;;;;;;;;;;;;;;;1282780;23;857;-48
2022/04/13 02:27:47;;;;;;;;;;;;;;;;;;1282397;23;972;-48
2022/04/13 02:28:18;;;;;;;;;;;;;;;;;;1282729;23;826;-48
2022/04/13 02:28:48;;;;;;;;;;;;;;;;;;1282673;23;1008;-48
2022/04/13 02:29:19;;;;;;;;;;;;;;;;;;1282849;23;956;-48
2022/04/13 02:29:50;;;;;;;;;;;;;;;;;;1282530;23;826;-48
2022/04/13 02:30:20;;;;;;;;;;;;;;;;;;1282676;23;885;-47
2022/04/13 02:31:00;;;;;;;;;;;;;;;;;;1282534;23;884;-48
2022/04/13 02:31:30;;;;;;;;;;;;;;;;;;1282357;23;829;-47
2022/04/13 02:32:01;;;;;;;;;;;;;;;;;;1282162;23;841;-47
2022/04/13 02:32:31;;;;;;;;;;;;;;;;;;1282674;23;885;-47
2022/04/13 02:33:02;;;;;;;;;;;;;;;;;;1282508;23;853;-47
2022/04/13 02:33:32;;;;;;;;;;;;;;;;;;1282738;23;984;-48
2022/04/13 02:34:04;;;;;;;;;;;;;;;;;;1282837;23;798;-47
2022/04/13 02:34:34;;;;;;;;;;;;;;;;;;1282972;23;856;-47
2022/04/13 02:35:05;;;;;;;;;;;;;;;;;;1282701;23;770;-47
2022/04/13 02:35:35;;;;;;;;;;;;;;;;;;1282942;23;889;-47
2022/04/13 02:36:06;;;;;;;;;;;;;;;;;;1282562;23;758;-47
2022/04/13 02:36:39;;;;;;;;;;;;;;;;;;1282980;23;1950;-48
2022/04/13 02:37:12;;;;;;;;;;;;;;;;;;1282651;23;854;-47
2022/04/13 02:37:45;;;;;;;;;;;;;;;;;;1282902;23;894;-47
2022/04/13 02:38:16;;;;;;;;;;;;;;;;;;1282674;23;956;-47
2022/04/13 02:38:47;;;;;;;;;;;;;;;;;;1285544;23;1243;-48
2022/04/13 02:39:17;;;;;;;;;;;;;;;;;;1285366;23;940;-48
2022/04/13 02:39:47;;;;;;;;;;;;;;;;;;1286116;23;1020;-48
2022/04/13 02:40:19;;;;;;;;;;;;;;;;;;1284264;23;1119;-47
2022/04/13 02:40:50;;;;;;;;;;;;;;;;;;1283063;23;968;-48
2022/04/13 02:41:20;;;;;;;;;;;;;;;;;;1282939;23;910;-48
2022/04/13 02:41:50;;;;;;;;;;;;;;;;;;1282469;23;1070;-48
2022/04/13 02:42:21;;;;;;;;;;;;;;;;;;1282754;23;886;-47
2022/04/13 02:42:51;;;;;;;;;;;;;;;;;;1282451;23;822;-47
2022/04/13 02:43:21;;;;;;;;;;;;;;;;;;1282738;23;912;-48
2022/04/13 02:43:52;;;;;;;;;;;;;;;;;;1282295;23;502;-48
2022/04/13 02:44:22;;;;;;;;;;;;;;;;;;1282671;23;1790;-48
2022/04/13 02:44:53;;;;;;;;;;;;;;;;;;1282283;23;935;-48
2022/04/13 02:45:23;;;;;;;;;;;;;;;;;;1282784;23;909;-47
2022/04/13 02:45:54;;;;;;;;;;;;;;;;;;1282318;23;939;-47
2022/04/13 02:46:24;;;;;;;;;;;;;;;;;;1282458;23;885;-48
2022/04/13 02:46:55;;;;;;;;;;;;;;;;;;1282482;23;944;-48
2022/04/13 02:47:25;;;;;;;;;;;;;;;;;;1275832;23;764;-47
2022/04/13 02:47:55;;;;;;;;;;;;;;;;;;1275817;23;1010;-47
2022/04/13 02:48:25;;;;;;;;;;;;;;;;;;1275807;23;885;-47
2022/04/13 02:48:56;;;;;;;;;;;;;;;;;;1275928;23;885;-47
2022/04/13 02:49:26;;;;;;;;;;;;;;;;;;1282702;23;775;-47
2022/04/13 02:49:57;;;;;;;;;;;;;;;;;;1282429;23;774;-47
2022/04/13 02:50:27;;;;;;;;;;;;;;;;;;1282535;23;968;-47
2022/04/13 02:50:57;;;;;;;;;;;;;;;;;;1282555;23;1680;-47
2022/04/13 02:51:28;;;;;;;;;;;;;;;;;;1282491;23;936;-47
2022/04/13 02:51:58;;;;;;;;;;;;;;;;;;1282357;23;806;-47
2022/04/13 02:52:28;;;;;;;;;;;;;;;;;;1282642;23;901;-48
2022/04/13 02:52:59;;;;;;;;;;;;;;;;;;1282406;23;809;-48
2022/04/13 02:53:30;;;;;;;;;;;;;;;;;;1282849;23;963;-48
2022/04/13 02:54:00;;;;;;;;;;;;;;;;;;1281949;23;814;-47
2022/04/13 02:54:30;;;;;;;;;;;;;;;;;;1282517;23;910;-48
2022/04/13 02:55:01;;;;;;;;;;;;;;;;;;1282421;23;1041;-48
2022/04/13 02:55:31;;;;;;;;;;;;;;;;;;1282647;23;948;-48
2022/04/13 02:56:01;;;;;;;;;;;;;;;;;;1282350;23;837;-48
2022/04/13 02:56:32;;;;;;;;;;;;;;;;;;1282455;23;1892;-46
2022/04/13 02:57:05;;;;;;;;;;;;;;;;;;1282575;23;873;-43
2022/04/13 02:57:36;;;;;;;;;;;;;;;;;;1282797;23;797;-46
2022/04/13 02:58:06;;;;;;;;;;;;;;;;;;1282324;23;956;-46
2022/04/13 02:58:37;;;;;;;;;;;;;;;;;;1282678;23;790;-46
2022/04/13 02:59:07;;;;;;;;;;;;;;;;;;1282465;23;905;-47
2022/04/13 02:59:37;;;;;;;;;;;;;;;;;;1282800;23;782;-46
2022/04/13 03:00:09;;;;;;;;;;;;;;;;;;1282275;23;799;-46
2022/04/13 03:00:42;;;;;;;;;;;;;;;;;;1282680;23;865;-46
2022/04/13 03:01:12;;;;;;;;;;;;;;;;;;1282088;23;908;-47
2022/04/13 03:01:46;;;;;;;;;;;;;;;;;;1282335;23;908;-46
2022/04/13 03:02:17;;;;;;;;;;;;;;;;;;1282667;23;786;-46
2022/04/13 03:02:47;;;;;;;;;;;;;;;;;;1282173;23;940;-47
2022/04/13 03:03:17;;;;;;;;;;;;;;;;;;1282720;23;829;-47
2022/04/13 03:03:48;;;;;;;;;;;;;;;;;;1282406;23;908;-47
2022/04/13 03:04:18;;;;;;;;;;;;;;;;;;1282633;23;1107;-48
2022/04/13 03:04:49;;;;;;;;;;;;;;;;;;1282567;23;1607;-46
2022/04/13 03:05:20;;;;;;;;;;;;;;;;;;1282952;23;958;-47
2022/04/13 03:05:50;;;;;;;;;;;;;;;;;;1282147;23;963;-47
2022/04/13 03:06:20;;;;;;;;;;;;;;;;;;1282718;23;1088;-47
2022/04/13 03:06:51;;;;;;;;;;;;;;;;;;1282355;23;920;-46
2022/04/13 03:07:22;;;;;;;;;;;;;;;;;;1282434;23;933;-47
2022/04/13 03:07:53;;;;;;;;;;;;;;;;;;1282134;23;802;-47
2022/04/13 03:08:23;;;;;;;;;;;;;;;;;;1282779;23;798;-47
2022/04/13 03:08:54;;;;;;;;;;;;;;;;;;1281755;23;900;-47
2022/04/13 03:09:24;;;;;;;;;;;;;;;;;;1282792;23;782;-46
2022/04/13 03:09:55;;;;;;;;;;;;;;;;;;1282371;23;975;-46
2022/04/13 03:10:25;;;;;;;;;;;;;;;;;;1282476;23;889;-46
2022/04/13 03:10:55;;;;;;;;;;;;;;;;;;1282323;23;846;-47
2022/04/13 03:11:26;;;;;;;;;;;;;;;;;;1282534;23;932;-46
2022/04/13 03:11:56;;;;;;;;;;;;;;;;;;1282525;23;934;-46
2022/04/13 03:12:26;;;;;;;;;;;;;;;;;;1282629;23;853;-46
2022/04/13 03:12:57;;;;;;;;;;;;;;;;;;1282359;23;954;-46
2022/04/13 03:13:27;;;;;;;;;;;;;;;;;;1282393;23;944;-47
2022/04/13 03:13:57;;;;;;;;;;;;;;;;;;1282236;23;885;-47
2022/04/13 03:14:28;;;;;;;;;;;;;;;;;;1282059;23;789;-47
2022/04/13 03:14:58;;;;;;;;;;;;;;;;;;1282011;23;908;-47
2022/04/13 03:15:28;;;;;;;;;;;;;;;;;;1282287;23;813;-47
2022/04/13 03:16:01;;;;;;;;;;;;;;;;;;1281706;23;828;-47
2022/04/13 03:16:32;;;;;;;;;;;;;;;;;;1282287;23;1896;-46
2022/04/13 03:17:02;;;;;;;;;;;;;;;;;;1282509;23;750;-47
2022/04/13 03:17:32;;;;;;;;;;;;;;;;;;1282680;23;876;-46
2022/04/13 03:18:05;;;;;;;;;;;;;;;;;;1282264;23;894;-47
2022/04/13 03:18:35;;;;;;;;;;;;;;;;;;1282563;23;1156;-48
2022/04/13 03:19:05;;;;;;;;;;;;;;;;;;1282344;23;1064;-47
2022/04/13 03:19:36;;;;;;;;;;;;;;;;;;1282634;23;896;-48
2022/04/13 03:20:07;;;;;;;;;;;;;;;;;;1282193;23;878;-47
2022/04/13 03:20:37;;;;;;;;;;;;;;;;;;1282621;23;1050;-47
2022/04/13 03:21:07;;;;;;;;;;;;;;;;;;1282403;23;778;-48
2022/04/13 03:21:40;;;;;;;;;;;;;;;;;;1282499;23;805;-47
2022/04/13 03:22:11;;;;;;;;;;;;;;;;;;1282256;23;901;-47
2022/04/13 03:22:41;;;;;;;;;;;;;;;;;;1282652;23;885;-47
2022/04/13 03:23:11;;;;;;;;;;;;;;;;;;1282236;23;785;-47
2022/04/13 03:23:42;;;;;;;;;;;;;;;;;;1282336;23;848;-48
2022/04/13 03:24:12;;;;;;;;;;;;;;;;;;1282044;23;1730;-48
2022/04/13 03:24:46;;;;;;;;;;;;;;;;;;1282699;23;1027;-47
2022/04/13 03:25:17;;;;;;;;;;;;;;;;;;1282674;23;873;-46
2022/04/13 03:25:48;;;;;;;;;;;;;;;;;;1282242;23;916;-48
2022/04/13 03:26:19;;;;;;;;;;;;;;;;;;1282423;23;964;-47
2022/04/13 03:26:49;;;;;;;;;;;;;;;;;;1282172;23;904;-47
2022/04/13 03:27:20;;;;;;;;;;;;;;;;;;1282348;23;806;-47
2022/04/13 03:27:50;;;;;;;;;;;;;;;;;;1282152;23;1121;-47
2022/04/13 03:28:23;;;;;;;;;;;;;;;;;;1282626;23;794;-48
2022/04/13 03:29:00;;;;;;;;;;;;;;;;;;1283613;23;903;-39
2022/04/13 03:29:34;;;;;;;;;;;;;;;;;;1283222;23;873;-39
2022/04/13 03:30:05;;;;;;;;;;;;;;;;;;1282343;23;846;-46
2022/04/13 03:30:35;;;;;;;;;;;;;;;;;;1283243;23;817;-39
2022/04/13 03:31:08;;;;;;;;;;;;;;;;;;1283146;23;885;-38
2022/04/13 03:31:39;;;;;;;;;;;;;;;;;;1283640;23;837;-39
2022/04/13 03:32:09;;;;;;;;;;;;;;;;;;1282186;23;1592;-39
2022/04/13 03:32:40;;;;;;;;;;;;;;;;;;1283222;23;1131;-38
2022/04/13 03:33:10;;;;;;;;;;;;;;;;;;1282166;23;1369;-39
2022/04/13 03:33:40;;;;;;;;;;;;;;;;;;1282897;23;900;-39
2022/04/13 03:34:10;;;;;;;;;;;;;;;;;;1282277;23;794;-39
2022/04/13 03:34:41;;;;;;;;;;;;;;;;;;1282428;23;802;-39
2022/04/13 03:35:11;;;;;;;;;;;;;;;;;;1282159;23;897;-39
2022/04/13 03:35:42;;;;;;;;;;;;;;;;;;1282721;23;868;-43
2022/04/13 03:36:13;;;;;;;;;;;;;;;;;;1281912;23;853;-39
2022/04/13 03:36:43;;;;;;;;;;;;;;;;;;1282366;23;1944;-39
2022/04/13 03:37:13;;;;;;;;;;;;;;;;;;1282369;23;810;-39
2022/04/13 03:37:44;;;;;;;;;;;;;;;;;;1282478;23;750;-39
2022/04/13 03:38:14;;;;;;;;;;;;;;;;;;1282004;23;809;-39